createdAt,value
2022-11-06T00:00:39.343Z,2.30
2022-11-06T00:03:43.377Z,2.22
2022-11-06T00:06:49.548Z,2.10
2022-11-06T00:09:52.689Z,2.17
2022-11-06T00:12:55.351Z,2.37
2022-11-06T00:16:03.974Z,2.20
2022-11-06T00:19:08.194Z,2.15
2022-11-06T00:22:11.134Z,2.30
2022-11-06T00:25:14.618Z,1.85
2022-11-06T00:28:17.745Z,2.33
2022-11-06T00:31:24.527Z,1.77
2022-11-06T00:34:28.773Z,2.40
2022-11-06T00:37:31.809Z,1.77
2022-11-06T00:40:34.735Z,1.90
2022-11-06T00:43:37.999Z,2.42
2022-11-06T00:46:41.693Z,1.70
2022-11-06T00:49:44.593Z,1.90
2022-11-06T00:52:47.305Z,2.00
2022-11-06T00:55:52.073Z,1.90
2022-11-06T00:58:55.689Z,2.12
2022-11-06T01:02:00.783Z,2.20
2022-11-06T01:05:04.652Z,2.00
2022-11-06T01:08:10.094Z,2.05
2022-11-06T01:11:19.093Z,2.03
2022-11-06T01:14:23.527Z,2.08
2022-11-06T01:17:26.497Z,1.80
2022-11-06T01:20:30.200Z,2.10
2022-11-06T01:23:33.102Z,2.15
2022-11-06T01:26:42.661Z,2.00
2022-11-06T01:29:52.480Z,2.12
2022-11-06T01:32:55.090Z,2.10
2022-11-06T01:35:58.200Z,2.30
2022-11-06T01:39:03.547Z,2.20
2022-11-06T01:42:06.322Z,2.33
2022-11-06T01:45:24.876Z,2.10
2022-11-06T01:48:29.773Z,2.27
2022-11-06T01:51:40.431Z,2.20
2022-11-06T01:54:53.851Z,2.30
2022-11-06T01:57:59.914Z,2.50
2022-11-06T02:01:04.369Z,2.33
2022-11-06T02:04:18.291Z,2.30
2022-11-06T02:07:21.222Z,2.22
2022-11-06T02:10:24.238Z,2.12
2022-11-06T02:13:52.026Z,3.25
2022-11-06T02:17:03.045Z,3.80
2022-11-06T02:20:31.709Z,3.80
2022-11-06T02:23:53.287Z,4.10
2022-11-06T02:27:27.366Z,2.53
2022-11-06T02:30:36.925Z,2.95
2022-11-06T02:33:47.903Z,2.65
2022-11-06T02:36:57.506Z,2.50
2022-11-06T02:40:04.962Z,2.97
2022-11-06T02:43:10.219Z,3.40
2022-11-06T02:46:15.143Z,4.35
2022-11-06T02:49:21.661Z,4.90
2022-11-06T02:52:34.420Z,4.80
2022-11-06T02:55:41.768Z,2.90
2022-11-06T02:58:57.827Z,2.50
2022-11-06T03:02:04.523Z,2.85
2022-11-06T03:05:08.551Z,3.95
2022-11-06T03:08:22.178Z,3.20
2022-11-06T03:11:28.554Z,2.40
2022-11-06T03:14:47.006Z,2.37
2022-11-06T03:17:49.642Z,6.97
2022-11-06T03:21:01.829Z,4.75
2022-11-06T03:24:15.479Z,2.73
2022-11-06T03:27:24.096Z,2.60
2022-11-06T03:30:29.853Z,2.70
2022-11-06T03:33:44.247Z,2.35
2022-11-06T03:36:54.688Z,1.98
2022-11-06T03:40:03.056Z,2.50
2022-11-06T03:43:09.759Z,2.50
2022-11-06T03:46:19.519Z,2.30
2022-11-06T03:49:36.861Z,2.53
2022-11-06T03:52:44.826Z,2.60
2022-11-06T03:55:55.801Z,2.50
2022-11-06T03:59:06.386Z,2.47
2022-11-06T04:02:11.964Z,3.28
2022-11-06T04:05:22.801Z,2.62
2022-11-06T04:08:46.120Z,2.78
2022-11-06T04:12:08.830Z,1.73
2022-11-06T04:15:17.875Z,2.22
2022-11-06T04:18:20.805Z,1.80
2022-11-06T04:21:32.315Z,1.77
2022-11-06T04:26:03.285Z,2.17
2022-11-06T04:29:34.314Z,1.70
2022-11-06T04:36:53.734Z,1.70
2022-11-06T04:40:05.673Z,1.80
2022-11-06T04:43:20.441Z,1.80
2022-11-06T04:46:28.023Z,1.87
2022-11-06T04:49:34.044Z,1.60
2022-11-06T04:52:39.109Z,1.42
2022-11-06T04:55:51.550Z,1.60
2022-11-06T04:58:55.105Z,1.93
2022-11-06T05:01:58.590Z,1.40
2022-11-06T05:05:03.134Z,2.75
2022-11-06T05:08:07.646Z,2.15
2022-11-06T05:11:11.137Z,2.30
2022-11-06T05:14:14.023Z,3.10
2022-11-06T05:17:16.962Z,2.93
2022-11-06T05:20:19.650Z,3.30
2022-11-06T05:23:22.425Z,3.65
2022-11-06T05:26:25.508Z,3.55
2022-11-06T05:29:28.459Z,3.70
2022-11-06T05:32:34.732Z,3.60
2022-11-06T05:35:39.548Z,3.47
2022-11-06T05:38:42.269Z,4.35
2022-11-06T05:41:47.741Z,3.80
2022-11-06T05:44:50.828Z,4.03
2022-11-06T05:47:54.630Z,4.00
2022-11-06T05:51:03.338Z,4.28
2022-11-06T05:54:06.343Z,4.47
2022-11-06T05:57:09.076Z,4.95
2022-11-06T06:00:15.136Z,4.30
2022-11-06T06:03:21.621Z,4.17
2022-11-06T06:06:26.092Z,4.53
2022-11-06T06:09:30.360Z,4.60
2022-11-06T06:12:33.742Z,4.53
2022-11-06T06:15:42.368Z,4.60
2022-11-06T06:18:45.306Z,5.13
2022-11-06T06:21:50.236Z,5.10
2022-11-06T06:24:55.348Z,5.07
2022-11-06T06:28:00.108Z,4.60
2022-11-06T06:31:10.032Z,4.70
2022-11-06T06:34:15.365Z,4.60
2022-11-06T06:37:20.180Z,5.00
2022-11-06T06:40:23.489Z,4.80
2022-11-06T06:43:26.117Z,5.22
2022-11-06T06:46:35.067Z,4.60
2022-11-06T06:49:40.673Z,5.23
2022-11-06T06:52:47.667Z,5.20
2022-11-06T06:55:54.129Z,5.50
2022-11-06T06:59:04.294Z,5.68
2022-11-06T07:02:11.283Z,6.40
2022-11-06T07:05:21.154Z,6.03
2022-11-06T07:08:27.552Z,6.70
2022-11-06T07:11:35.408Z,6.57
2022-11-06T07:14:39.063Z,5.82
2022-11-06T07:17:53.108Z,6.10
2022-11-06T07:21:00.243Z,6.30
2022-11-06T07:24:05.213Z,5.90
2022-11-06T07:27:12.791Z,6.80
2022-11-06T07:30:15.928Z,7.28
2022-11-06T07:33:19.243Z,7.60
2022-11-06T07:36:25.536Z,7.80
2022-11-06T07:39:29.563Z,7.37
2022-11-06T07:42:34.028Z,6.87
2022-11-06T07:45:40.367Z,7.03
2022-11-06T07:48:47.294Z,7.23
2022-11-06T07:51:51.290Z,7.00
2022-11-06T07:55:05.141Z,7.15
2022-11-06T07:58:09.602Z,8.63
2022-11-06T08:01:20.441Z,7.87
2022-11-06T08:04:24.106Z,7.97
2022-11-06T08:07:35.088Z,7.50
2022-11-06T08:10:45.097Z,7.87
2022-11-06T08:13:58.045Z,7.82
2022-11-06T08:17:02.069Z,7.30
2022-11-06T08:20:15.032Z,8.50
2022-11-06T08:23:24.170Z,7.40
2022-11-06T08:26:32.104Z,7.35
2022-11-06T08:29:40.867Z,7.75
2022-11-06T08:32:51.093Z,7.62
2022-11-06T08:36:00.724Z,7.63
2022-11-06T08:39:06.113Z,7.93
2022-11-06T08:42:09.704Z,7.87
2022-11-06T08:45:14.616Z,8.32
2022-11-06T08:48:36.364Z,7.00
2022-11-06T08:51:48.623Z,7.00
2022-11-06T08:54:54.298Z,7.40
2022-11-06T08:57:57.552Z,7.07
2022-11-06T09:01:06.116Z,7.70
2022-11-06T09:04:11.107Z,7.62
2022-11-06T09:07:17.093Z,7.13
2022-11-06T09:10:20.741Z,7.70
2022-11-06T09:13:24.207Z,6.60
2022-11-06T09:16:32.071Z,8.02
2022-11-06T09:19:37.064Z,6.85
2022-11-06T09:22:46.870Z,7.63
2022-11-06T09:25:51.003Z,7.90
2022-11-06T09:28:59.048Z,7.68
2022-11-06T09:32:04.019Z,7.50
2022-11-06T09:35:09.110Z,8.32
2022-11-06T09:38:19.215Z,7.87
2022-11-06T09:41:48.090Z,9.33
2022-11-06T09:44:52.082Z,8.05
2022-11-06T09:48:11.812Z,7.75
2022-11-06T09:51:26.330Z,7.82
2022-11-06T09:54:36.630Z,5.33
2022-11-06T09:57:59.104Z,6.10
2022-11-06T10:01:27.310Z,5.03
2022-11-06T10:04:55.099Z,6.22
2022-11-06T10:08:03.113Z,5.57
2022-11-06T10:11:18.286Z,5.50
2022-11-06T10:14:31.142Z,4.40
2022-11-06T10:18:14.656Z,4.07
2022-11-06T10:21:30.079Z,4.62
2022-11-06T10:25:14.064Z,4.93
2022-11-06T10:28:50.146Z,4.23
2022-11-06T10:32:05.622Z,4.20
2022-11-06T10:35:16.357Z,5.07
2022-11-06T10:38:26.429Z,4.22
2022-11-06T10:41:34.966Z,4.55
2022-11-06T10:44:47.100Z,5.33
2022-11-06T10:47:57.151Z,4.67
2022-11-06T10:51:20.117Z,5.30
2022-11-06T10:54:52.346Z,5.68
2022-11-06T10:58:06.099Z,4.87
2022-11-06T11:01:14.935Z,5.00
2022-11-06T11:04:19.650Z,4.90
2022-11-06T11:07:25.259Z,5.37
2022-11-06T11:10:34.739Z,5.28
2022-11-06T11:13:37.879Z,5.20
2022-11-06T11:16:47.330Z,5.33
2022-11-06T11:19:51.072Z,5.27
2022-11-06T11:26:32.450Z,4.68
2022-11-06T11:29:48.171Z,5.10
2022-11-06T11:32:54.532Z,4.97
2022-11-06T11:35:58.489Z,5.10
2022-11-06T11:39:01.873Z,7.20
2022-11-06T11:42:26.116Z,5.78
2022-11-06T11:45:33.078Z,4.75
2022-11-06T11:48:45.113Z,5.00
2022-11-06T11:51:56.217Z,4.73
2022-11-06T11:55:05.136Z,5.05
2022-11-06T11:58:28.159Z,4.97
2022-11-06T12:01:41.083Z,5.70
2022-11-06T12:04:48.092Z,5.13
2022-11-06T12:07:57.802Z,4.90
2022-11-06T12:11:10.320Z,5.20
2022-11-06T12:14:45.006Z,5.70
2022-11-06T12:17:59.210Z,5.93
2022-11-06T12:21:05.970Z,5.93
2022-11-06T12:24:21.043Z,6.30
2022-11-06T12:27:33.297Z,6.85
2022-11-06T12:30:41.783Z,6.97
2022-11-06T12:34:06.791Z,6.80
2022-11-06T12:37:38.619Z,5.97
2022-11-06T12:40:56.060Z,5.83
2022-11-06T12:44:02.250Z,5.15
2022-11-06T12:47:13.392Z,5.28
2022-11-06T12:50:53.030Z,5.28
2022-11-06T12:54:35.014Z,5.53
2022-11-06T12:58:20.478Z,4.63
2022-11-06T13:01:44.370Z,4.25
2022-11-06T13:05:18.455Z,4.57
2022-11-06T13:08:30.108Z,4.60
2022-11-06T13:12:02.267Z,4.20
2022-11-06T13:15:26.462Z,4.80
2022-11-06T13:18:45.311Z,4.60
2022-11-06T13:22:27.876Z,4.80
2022-11-06T13:25:44.097Z,4.57
2022-11-06T13:29:03.403Z,4.60
2022-11-06T13:32:20.820Z,4.50
2022-11-06T13:35:24.490Z,4.37
2022-11-06T13:38:42.319Z,4.78
2022-11-06T13:41:46.050Z,5.05
2022-11-06T13:44:52.722Z,4.13
2022-11-06T13:48:03.365Z,4.33
2022-11-06T13:51:19.089Z,4.45
2022-11-06T13:54:33.046Z,4.43
2022-11-06T13:57:45.993Z,4.57
2022-11-06T14:01:12.246Z,5.43
2022-11-06T14:04:32.143Z,5.77
2022-11-06T14:07:40.043Z,7.00
2022-11-06T14:11:18.097Z,7.07
2022-11-06T14:14:31.856Z,5.65
2022-11-06T14:17:36.087Z,6.27
2022-11-06T14:20:44.095Z,6.17
2022-11-06T14:23:55.192Z,7.15
2022-11-06T14:27:04.310Z,7.95
2022-11-06T14:31:05.805Z,7.07
2022-11-06T14:34:02.917Z,10.37
2022-11-06T14:37:20.086Z,12.00
2022-11-06T14:40:32.748Z,9.95
2022-11-06T14:43:36.701Z,9.32
2022-11-06T14:46:55.265Z,9.60
2022-11-06T14:50:07.197Z,12.47
2022-11-06T14:53:44.297Z,17.73
2022-11-06T14:56:53.112Z,18.27
2022-11-06T15:00:06.062Z,13.70
2022-11-06T15:03:33.616Z,16.20
2022-11-06T15:06:55.001Z,16.13
2022-11-06T15:10:02.039Z,17.03
2022-11-06T15:13:23.148Z,23.95
2022-11-06T15:16:51.963Z,27.02
2022-11-06T15:20:08.448Z,22.62
2022-11-06T15:23:35.453Z,26.50
2022-11-06T15:26:55.088Z,26.27
2022-11-06T15:30:19.057Z,19.50
2022-11-06T15:33:58.081Z,16.55
2022-11-06T15:37:27.216Z,23.27
2022-11-06T15:40:34.030Z,23.20
2022-11-06T15:43:42.532Z,33.17
2022-11-06T15:47:03.077Z,36.15
2022-11-06T15:50:27.988Z,27.73
2022-11-06T15:53:41.131Z,24.23
2022-11-06T15:56:50.638Z,18.43
2022-11-06T16:00:18.079Z,17.63
2022-11-06T16:04:01.665Z,18.55
2022-11-06T16:07:13.032Z,14.95
2022-11-06T16:10:26.090Z,13.07
2022-11-06T16:13:29.935Z,12.80
2022-11-06T16:16:48.785Z,12.17
2022-11-06T16:20:02.079Z,12.73
2022-11-06T16:23:06.385Z,12.63
2022-11-06T16:26:36.898Z,13.40
2022-11-06T16:30:09.953Z,14.60
2022-11-06T16:33:24.426Z,13.97
2022-11-06T16:36:54.979Z,15.32
2022-11-06T16:40:28.158Z,16.02
2022-11-06T16:43:38.128Z,17.27
2022-11-06T16:47:16.214Z,17.40
2022-11-06T16:50:54.047Z,19.53
2022-11-06T16:54:06.227Z,19.67
2022-11-06T16:57:23.241Z,20.05
2022-11-06T17:00:41.080Z,19.48
2022-11-06T17:04:01.059Z,21.43
2022-11-06T17:07:21.061Z,22.27
2022-11-06T17:10:35.033Z,21.70
2022-11-06T17:13:46.752Z,22.05
2022-11-06T17:16:59.348Z,24.52
2022-11-06T17:20:15.802Z,29.23
2022-11-06T17:23:22.443Z,27.40
2022-11-06T17:26:33.029Z,31.02
2022-11-06T17:29:40.145Z,28.23
2022-11-06T17:32:49.094Z,29.42
2022-11-06T17:36:05.094Z,30.20
2022-11-06T17:39:08.614Z,33.10
2022-11-06T17:42:13.166Z,31.65
2022-11-06T17:45:25.055Z,30.15
2022-11-06T17:48:36.772Z,32.25
2022-11-06T17:52:03.085Z,40.60
2022-11-06T17:55:09.183Z,58.60
2022-11-06T17:58:13.246Z,50.10
2022-11-06T18:01:17.248Z,44.22
2022-11-06T18:04:35.465Z,39.10
2022-11-06T18:07:40.866Z,34.27
2022-11-06T18:10:55.376Z,34.40
2022-11-06T18:14:02.174Z,30.73
2022-11-06T18:17:14.814Z,31.58
2022-11-06T18:20:29.434Z,28.62
2022-11-06T18:23:48.050Z,27.23
2022-11-06T18:27:01.066Z,24.23
2022-11-06T18:30:08.648Z,24.42
2022-11-06T18:33:13.515Z,25.27
2022-11-06T18:36:25.085Z,24.48
2022-11-06T18:39:33.553Z,26.40
2022-11-06T18:42:40.111Z,23.67
2022-11-06T18:45:44.082Z,23.95
2022-11-06T18:48:48.669Z,24.95
2022-11-06T18:51:58.439Z,29.85
2022-11-06T18:55:09.068Z,34.20
2022-11-06T18:58:24.019Z,35.20
2022-11-06T19:01:38.171Z,34.67
2022-11-06T19:04:48.573Z,34.53
2022-11-06T19:07:59.988Z,33.97
2022-11-06T19:11:14.111Z,33.77
2022-11-06T19:14:23.455Z,35.20
2022-11-06T19:17:29.033Z,35.03
2022-11-06T19:20:40.064Z,34.83
2022-11-06T19:23:45.717Z,33.38
2022-11-06T19:26:56.849Z,33.70
2022-11-06T19:30:07.070Z,34.13
2022-11-06T19:33:19.144Z,33.08
2022-11-06T19:36:31.070Z,34.60
2022-11-06T19:39:37.571Z,38.35
2022-11-06T19:42:41.906Z,35.20
2022-11-06T19:45:48.813Z,36.00
2022-11-06T19:49:06.018Z,38.65
2022-11-06T19:52:41.102Z,40.42
2022-11-06T19:55:50.977Z,40.42
2022-11-06T19:58:58.339Z,38.20
2022-11-06T20:02:06.206Z,37.53
2022-11-06T20:05:13.366Z,36.67
2022-11-06T20:08:20.066Z,35.97
2022-11-06T20:11:27.167Z,34.15
2022-11-06T20:14:32.309Z,34.27
2022-11-06T20:17:35.899Z,35.47
2022-11-06T20:20:41.375Z,34.65
2022-11-06T20:23:52.086Z,34.67
2022-11-06T20:26:58.070Z,34.83
2022-11-06T20:30:08.054Z,33.97
2022-11-06T20:33:13.931Z,35.87
2022-11-06T20:36:29.434Z,42.08
2022-11-06T20:39:36.375Z,42.50
2022-11-06T20:42:46.371Z,40.15
2022-11-06T20:45:51.374Z,39.67
2022-11-06T20:48:55.471Z,36.77
2022-11-06T20:52:13.574Z,38.45
2022-11-06T20:55:18.689Z,35.80
2022-11-06T20:58:25.186Z,35.45
2022-11-06T21:01:40.134Z,36.50
2022-11-06T21:04:45.752Z,37.30
2022-11-06T21:08:03.032Z,38.35
2022-11-06T21:11:13.070Z,36.63
2022-11-06T21:14:20.764Z,36.13
2022-11-06T21:17:24.144Z,37.27
2022-11-06T21:20:28.636Z,36.67
2022-11-06T21:23:34.227Z,34.53
2022-11-06T21:26:39.224Z,34.65
2022-11-06T21:29:45.344Z,36.72
2022-11-06T21:32:50.243Z,37.90
2022-11-06T21:36:04.296Z,35.77
2022-11-06T21:39:11.537Z,36.40
2022-11-06T21:42:15.611Z,36.38
2022-11-06T21:45:19.975Z,37.25
2022-11-06T21:48:45.066Z,39.33
2022-11-06T21:51:49.072Z,36.53
2022-11-06T21:55:12.981Z,39.38
2022-11-06T21:58:17.308Z,41.67
2022-11-06T22:01:20.873Z,41.60
2022-11-06T22:04:24.415Z,38.57
2022-11-06T22:07:27.454Z,38.97
2022-11-06T22:10:31.891Z,38.33
2022-11-06T22:13:36.987Z,37.63
2022-11-06T22:16:50.006Z,38.25
2022-11-06T22:19:53.369Z,37.97
2022-11-06T22:22:57.106Z,41.47
2022-11-06T22:26:00.564Z,39.88
2022-11-06T22:29:10.650Z,37.65
2022-11-06T22:32:15.069Z,36.90
2022-11-06T22:35:19.025Z,39.50
2022-11-06T22:38:22.293Z,40.20
2022-11-06T22:41:27.017Z,39.50
2022-11-06T22:44:36.700Z,39.88
2022-11-06T22:47:40.262Z,37.17
2022-11-06T22:50:43.254Z,37.37
2022-11-06T22:53:47.162Z,40.00
2022-11-06T22:56:50.341Z,38.03
2022-11-06T22:59:53.525Z,40.75
2022-11-06T23:02:56.836Z,41.90
2022-11-06T23:06:04.277Z,50.27
2022-11-06T23:09:07.456Z,47.97
2022-11-06T23:12:11.829Z,50.58
2022-11-06T23:15:14.775Z,53.00
2022-11-06T23:18:19.553Z,46.95
2022-11-06T23:21:22.606Z,46.30
2022-11-06T23:24:25.604Z,44.90
2022-11-06T23:27:28.085Z,46.67
2022-11-06T23:30:31.802Z,47.58
2022-11-06T23:33:35.435Z,42.60
2022-11-06T23:36:38.418Z,41.40
2022-11-06T23:39:41.183Z,42.07
2022-11-06T23:42:47.626Z,44.45
2022-11-06T23:45:51.406Z,47.03
2022-11-06T23:48:56.434Z,44.45
2022-11-06T23:51:59.331Z,47.73
2022-11-06T23:55:05.052Z,47.00
2022-11-06T23:58:09.647Z,47.05
